sensor_id;sensor_type;location;lat;lon;timestamp;temperature;humidity
53643;DHT22;39546;45.534;12.048;2023-04-25T00:01:17;16.40;79.90
53643;DHT22;39546;45.534;12.048;2023-04-25T00:07:20;16.60;80.10
53643;DHT22;39546;45.534;12.048;2023-04-25T00:13:22;16.70;79.60
53643;DHT22;39546;45.534;12.048;2023-04-25T00:19:25;16.60;79.60
53643;DHT22;39546;45.534;12.048;2023-04-25T00:25:28;16.50;79.60
53643;DHT22;39546;45.534;12.048;2023-04-25T00:31:30;16.60;79.50
53643;DHT22;39546;45.534;12.048;2023-04-25T00:37:32;16.60;79.40
53643;DHT22;39546;45.534;12.048;2023-04-25T00:43:36;16.60;79.40
53643;DHT22;39546;45.534;12.048;2023-04-25T00:49:39;16.60;79.30
53643;DHT22;39546;45.534;12.048;2023-04-25T00:55:41;16.60;79.40
53643;DHT22;39546;45.534;12.048;2023-04-25T01:01:43;16.60;79.50
53643;DHT22;39546;45.534;12.048;2023-04-25T01:07:46;16.50;79.30
53643;DHT22;39546;45.534;12.048;2023-04-25T01:13:48;16.50;79.20
53643;DHT22;39546;45.534;12.048;2023-04-25T01:19:51;16.40;79.90
53643;DHT22;39546;45.534;12.048;2023-04-25T01:25:54;16.30;79.80
53643;DHT22;39546;45.534;12.048;2023-04-25T01:32:24;16.30;79.70
53643;DHT22;39546;45.534;12.048;2023-04-25T01:38:26;16.20;79.60
53643;DHT22;39546;45.534;12.048;2023-04-25T01:44:29;16.10;79.80
53643;DHT22;39546;45.534;12.048;2023-04-25T01:50:31;16.20;79.80
53643;DHT22;39546;45.534;12.048;2023-04-25T01:56:37;16.20;80.10
53643;DHT22;39546;45.534;12.048;2023-04-25T02:02:39;16.20;80.40
53643;DHT22;39546;45.534;12.048;2023-04-25T02:08:42;16.20;80.20
53643;DHT22;39546;45.534;12.048;2023-04-25T02:14:46;16.10;80.60
53643;DHT22;39546;45.534;12.048;2023-04-25T02:21:11;16.00;80.70
53643;DHT22;39546;45.534;12.048;2023-04-25T02:27:24;16.00;80.20
53643;DHT22;39546;45.534;12.048;2023-04-25T02:33:26;16.00;79.90
53643;DHT22;39546;45.534;12.048;2023-04-25T02:39:34;15.90;80.00
53643;DHT22;39546;45.534;12.048;2023-04-25T02:45:40;15.90;80.60
53643;DHT22;39546;45.534;12.048;2023-04-25T02:51:43;16.00;80.80
53643;DHT22;39546;45.534;12.048;2023-04-25T02:57:45;16.00;80.80
53643;DHT22;39546;45.534;12.048;2023-04-25T03:03:48;16.00;80.40
53643;DHT22;39546;45.534;12.048;2023-04-25T03:09:50;15.80;80.60
53643;DHT22;39546;45.534;12.048;2023-04-25T03:15:52;15.80;80.80
53643;DHT22;39546;45.534;12.048;2023-04-25T03:21:55;15.80;80.50
53643;DHT22;39546;45.534;12.048;2023-04-25T03:27:58;15.80;80.60
53643;DHT22;39546;45.534;12.048;2023-04-25T03:34:00;15.80;80.50
53643;DHT22;39546;45.534;12.048;2023-04-25T03:40:02;15.70;80.50
53643;DHT22;39546;45.534;12.048;2023-04-25T03:46:06;15.70;80.90
53643;DHT22;39546;45.534;12.048;2023-04-25T03:52:08;15.70;80.80
53643;DHT22;39546;45.534;12.048;2023-04-25T03:58:10;15.80;80.80
53643;DHT22;39546;45.534;12.048;2023-04-25T04:04:13;15.80;81.30
53643;DHT22;39546;45.534;12.048;2023-04-25T04:10:16;15.50;81.50
53643;DHT22;39546;45.534;12.048;2023-04-25T04:16:19;15.40;81.90
53643;DHT22;39546;45.534;12.048;2023-04-25T04:22:23;15.30;82.00
53643;DHT22;39546;45.534;12.048;2023-04-25T04:28:26;15.20;82.20
53643;DHT22;39546;45.534;12.048;2023-04-25T04:34:29;15.20;82.10
53643;DHT22;39546;45.534;12.048;2023-04-25T04:40:33;15.20;82.10
53643;DHT22;39546;45.534;12.048;2023-04-25T04:46:36;15.20;82.60
53643;DHT22;39546;45.534;12.048;2023-04-25T04:52:44;15.30;82.60
53643;DHT22;39546;45.534;12.048;2023-04-25T04:58:47;15.40;82.70
53643;DHT22;39546;45.534;12.048;2023-04-25T05:04:51;15.50;82.60
53643;DHT22;39546;45.534;12.048;2023-04-25T05:10:54;15.40;82.30
53643;DHT22;39546;45.534;12.048;2023-04-25T05:16:58;15.20;82.10
53643;DHT22;39546;45.534;12.048;2023-04-25T05:23:00;15.00;82.00
53643;DHT22;39546;45.534;12.048;2023-04-25T05:29:03;15.10;82.00
53643;DHT22;39546;45.534;12.048;2023-04-25T05:35:06;14.80;82.10
53643;DHT22;39546;45.534;12.048;2023-04-25T05:41:15;14.70;82.80
53643;DHT22;39546;45.534;12.048;2023-04-25T05:47:53;14.80;82.30
53643;DHT22;39546;45.534;12.048;2023-04-25T05:53:56;14.70;82.20
53643;DHT22;39546;45.534;12.048;2023-04-25T06:00:03;14.90;82.10
53643;DHT22;39546;45.534;12.048;2023-04-25T06:06:33;15.00;82.20
53643;DHT22;39546;45.534;12.048;2023-04-25T06:12:35;15.00;82.50
53643;DHT22;39546;45.534;12.048;2023-04-25T06:18:39;15.20;82.40
53643;DHT22;39546;45.534;12.048;2023-04-25T06:24:42;15.20;82.20
53643;DHT22;39546;45.534;12.048;2023-04-25T06:30:47;15.20;82.00
53643;DHT22;39546;45.534;12.048;2023-04-25T06:36:49;15.10;82.30
53643;DHT22;39546;45.534;12.048;2023-04-25T06:42:51;15.10;82.40
53643;DHT22;39546;45.534;12.048;2023-04-25T06:48:55;15.00;82.20
53643;DHT22;39546;45.534;12.048;2023-04-25T06:54:59;15.00;82.30
53643;DHT22;39546;45.534;12.048;2023-04-25T07:01:05;14.90;82.70
53643;DHT22;39546;45.534;12.048;2023-04-25T07:07:07;14.90;83.10
53643;DHT22;39546;45.534;12.048;2023-04-25T07:13:11;14.90;83.10
53643;DHT22;39546;45.534;12.048;2023-04-25T07:19:13;15.00;83.00
53643;DHT22;39546;45.534;12.048;2023-04-25T07:25:17;15.00;83.00
53643;DHT22;39546;45.534;12.048;2023-04-25T07:31:24;15.00;83.00
53643;DHT22;39546;45.534;12.048;2023-04-25T07:37:27;15.00;83.00
53643;DHT22;39546;45.534;12.048;2023-04-25T07:43:30;14.90;83.00
53643;DHT22;39546;45.534;12.048;2023-04-25T07:49:37;14.80;83.20
53643;DHT22;39546;45.534;12.048;2023-04-25T07:55:39;14.80;83.30
53643;DHT22;39546;45.534;12.048;2023-04-25T08:01:42;14.70;83.60
53643;DHT22;39546;45.534;12.048;2023-04-25T08:07:45;14.70;83.60
53643;DHT22;39546;45.534;12.048;2023-04-25T08:13:47;14.80;83.40
53643;DHT22;39546;45.534;12.048;2023-04-25T08:19:50;14.80;83.40
53643;DHT22;39546;45.534;12.048;2023-04-25T08:25:53;14.80;83.40
53643;DHT22;39546;45.534;12.048;2023-04-25T08:31:56;14.90;83.40
53643;DHT22;39546;45.534;12.048;2023-04-25T08:37:59;14.80;83.60
53643;DHT22;39546;45.534;12.048;2023-04-25T08:44:03;14.80;83.50
53643;DHT22;39546;45.534;12.048;2023-04-25T08:50:06;14.80;83.40
53643;DHT22;39546;45.534;12.048;2023-04-25T08:56:10;14.80;83.20
53643;DHT22;39546;45.534;12.048;2023-04-25T09:02:15;14.80;83.30
53643;DHT22;39546;45.534;12.048;2023-04-25T09:08:20;14.60;83.30
53643;DHT22;39546;45.534;12.048;2023-04-25T09:14:23;14.40;83.30
53643;DHT22;39546;45.534;12.048;2023-04-25T09:20:28;14.20;83.40
53643;DHT22;39546;45.534;12.048;2023-04-25T09:26:31;13.90;83.20
53643;DHT22;39546;45.534;12.048;2023-04-25T09:32:35;13.70;83.10
53643;DHT22;39546;45.534;12.048;2023-04-25T09:38:45;13.50;83.20
53643;DHT22;39546;45.534;12.048;2023-04-25T09:44:48;13.50;83.50
53643;DHT22;39546;45.534;12.048;2023-04-25T09:51:09;13.70;83.60
53643;DHT22;39546;45.534;12.048;2023-04-25T09:57:17;13.80;83.70
53643;DHT22;39546;45.534;12.048;2023-04-25T10:03:20;13.90;83.90
53643;DHT22;39546;45.534;12.048;2023-04-25T10:09:29;14.10;84.30
53643;DHT22;39546;45.534;12.048;2023-04-25T10:15:35;14.20;84.70
53643;DHT22;39546;45.534;12.048;2023-04-25T10:21:48;14.40;84.60
53643;DHT22;39546;45.534;12.048;2023-04-25T10:27:52;14.70;84.30
53643;DHT22;39546;45.534;12.048;2023-04-25T10:33:54;15.00;83.80
53643;DHT22;39546;45.534;12.048;2023-04-25T10:39:56;15.20;83.30
53643;DHT22;39546;45.534;12.048;2023-04-25T10:46:02;15.40;81.70
53643;DHT22;39546;45.534;12.048;2023-04-25T10:52:32;15.70;81.00
53643;DHT22;39546;45.534;12.048;2023-04-25T10:58:34;16.00;80.70
53643;DHT22;39546;45.534;12.048;2023-04-25T11:04:37;16.10;80.40
53643;DHT22;39546;45.534;12.048;2023-04-25T11:10:40;16.40;80.60
53643;DHT22;39546;45.534;12.048;2023-04-25T11:16:42;16.70;79.40
53643;DHT22;39546;45.534;12.048;2023-04-25T11:22:46;16.70;79.30
53643;DHT22;39546;45.534;12.048;2023-04-25T11:28:49;16.90;79.80
53643;DHT22;39546;45.534;12.048;2023-04-25T11:34:52;16.90;79.90
53643;DHT22;39546;45.534;12.048;2023-04-25T11:40:55;17.10;79.50
53643;DHT22;39546;45.534;12.048;2023-04-25T11:46:57;17.40;78.90
53643;DHT22;39546;45.534;12.048;2023-04-25T11:52:59;17.60;78.50
53643;DHT22;39546;45.534;12.048;2023-04-25T11:59:03;17.80;79.00
53643;DHT22;39546;45.534;12.048;2023-04-25T12:05:07;17.60;79.70
53643;DHT22;39546;45.534;12.048;2023-04-25T12:11:21;17.70;79.20
53643;DHT22;39546;45.534;12.048;2023-04-25T12:17:23;17.50;79.50
53643;DHT22;39546;45.534;12.048;2023-04-25T12:23:26;17.60;78.90
53643;DHT22;39546;45.534;12.048;2023-04-25T12:29:31;17.70;79.40
53643;DHT22;39546;45.534;12.048;2023-04-25T12:35:33;17.70;79.60
53643;DHT22;39546;45.534;12.048;2023-04-25T12:41:35;17.50;80.00
53643;DHT22;39546;45.534;12.048;2023-04-25T12:47:37;17.50;79.20
53643;DHT22;39546;45.534;12.048;2023-04-25T12:53:39;17.50;79.00
53643;DHT22;39546;45.534;12.048;2023-04-25T12:59:42;17.50;78.10
53643;DHT22;39546;45.534;12.048;2023-04-25T13:05:44;17.70;78.10
53643;DHT22;39546;45.534;12.048;2023-04-25T13:11:46;17.70;78.30
53643;DHT22;39546;45.534;12.048;2023-04-25T13:17:48;17.60;78.00
53643;DHT22;39546;45.534;12.048;2023-04-25T13:23:50;17.50;78.40
53643;DHT22;39546;45.534;12.048;2023-04-25T13:29:52;17.30;78.00
53643;DHT22;39546;45.534;12.048;2023-04-25T13:35:54;17.30;77.40
53643;DHT22;39546;45.534;12.048;2023-04-25T13:41:58;17.30;77.30
53643;DHT22;39546;45.534;12.048;2023-04-25T13:48:00;17.20;77.30
53643;DHT22;39546;45.534;12.048;2023-04-25T13:54:03;17.10;77.70
53643;DHT22;39546;45.534;12.048;2023-04-25T14:00:05;17.00;77.30
53643;DHT22;39546;45.534;12.048;2023-04-25T14:06:10;17.10;77.80
53643;DHT22;39546;45.534;12.048;2023-04-25T14:12:15;17.00;77.00
53643;DHT22;39546;45.534;12.048;2023-04-25T14:18:17;17.20;77.10
53643;DHT22;39546;45.534;12.048;2023-04-25T14:24:20;17.30;76.70
53643;DHT22;39546;45.534;12.048;2023-04-25T14:30:22;17.30;76.60
53643;DHT22;39546;45.534;12.048;2023-04-25T14:36:24;17.20;76.70
53643;DHT22;39546;45.534;12.048;2023-04-25T14:42:28;17.10;77.20
53643;DHT22;39546;45.534;12.048;2023-04-25T14:48:30;17.10;77.50
53643;DHT22;39546;45.534;12.048;2023-04-25T14:54:32;17.00;77.70
53643;DHT22;39546;45.534;12.048;2023-04-25T15:00:34;17.00;78.20
53643;DHT22;39546;45.534;12.048;2023-04-25T15:06:37;17.00;78.00
53643;DHT22;39546;45.534;12.048;2023-04-25T15:12:43;17.00;77.80
53643;DHT22;39546;45.534;12.048;2023-04-25T15:18:45;17.10;76.80
53643;DHT22;39546;45.534;12.048;2023-04-25T15:24:47;17.30;77.40
53643;DHT22;39546;45.534;12.048;2023-04-25T15:37:38;18.20;75.20
53643;DHT22;39546;45.534;12.048;2023-04-25T15:43:42;18.20;75.00
53643;DHT22;39546;45.534;12.048;2023-04-25T15:49:44;17.80;73.80
53643;DHT22;39546;45.534;12.048;2023-04-25T15:55:46;17.50;74.70
53643;DHT22;39546;45.534;12.048;2023-04-25T16:01:48;17.30;74.40
53643;DHT22;39546;45.534;12.048;2023-04-25T16:07:51;17.10;73.50
53643;DHT22;39546;45.534;12.048;2023-04-25T16:13:54;16.80;71.80
53643;DHT22;39546;45.534;12.048;2023-04-25T16:19:56;16.60;71.20
53643;DHT22;39546;45.534;12.048;2023-04-25T16:26:00;16.60;72.20
53643;DHT22;39546;45.534;12.048;2023-04-25T16:32:02;16.70;72.50
53643;DHT22;39546;45.534;12.048;2023-04-25T16:38:05;16.90;72.60
53643;DHT22;39546;45.534;12.048;2023-04-25T16:44:07;17.00;72.60
53643;DHT22;39546;45.534;12.048;2023-04-25T16:50:11;17.50;72.60
53643;DHT22;39546;45.534;12.048;2023-04-25T16:56:14;19.00;70.00
53643;DHT22;39546;45.534;12.048;2023-04-25T17:02:16;20.30;67.90
53643;DHT22;39546;45.534;12.048;2023-04-25T17:08:18;20.10;68.10
53643;DHT22;39546;45.534;12.048;2023-04-25T17:14:21;19.60;69.50
53643;DHT22;39546;45.534;12.048;2023-04-25T17:20:23;19.20;69.70
53643;DHT22;39546;45.534;12.048;2023-04-25T17:26:26;19.90;68.30
53643;DHT22;39546;45.534;12.048;2023-04-25T17:32:28;20.80;67.00
53643;DHT22;39546;45.534;12.048;2023-04-25T17:38:31;20.10;69.40
53643;DHT22;39546;45.534;12.048;2023-04-25T17:44:34;19.30;71.10
53643;DHT22;39546;45.534;12.048;2023-04-25T17:50:36;18.80;71.60
53643;DHT22;39546;45.534;12.048;2023-04-25T17:56:38;18.20;72.80
53643;DHT22;39546;45.534;12.048;2023-04-25T18:02:41;17.70;74.50
53643;DHT22;39546;45.534;12.048;2023-04-25T18:08:43;17.50;75.00
53643;DHT22;39546;45.534;12.048;2023-04-25T18:14:46;17.30;75.20
53643;DHT22;39546;45.534;12.048;2023-04-25T18:20:48;17.00;75.10
53643;DHT22;39546;45.534;12.048;2023-04-25T18:26:51;16.70;75.00
53643;DHT22;39546;45.534;12.048;2023-04-25T18:32:55;16.40;75.30
53643;DHT22;39546;45.534;12.048;2023-04-25T18:38:58;16.30;75.50
53643;DHT22;39546;45.534;12.048;2023-04-25T18:45:03;16.20;75.60
53643;DHT22;39546;45.534;12.048;2023-04-25T18:51:06;16.10;75.80
53643;DHT22;39546;45.534;12.048;2023-04-25T18:57:08;16.00;76.70
53643;DHT22;39546;45.534;12.048;2023-04-25T19:03:12;16.00;76.90
53643;DHT22;39546;45.534;12.048;2023-04-25T19:09:14;15.90;76.20
53643;DHT22;39546;45.534;12.048;2023-04-25T19:15:17;15.80;77.20
53643;DHT22;39546;45.534;12.048;2023-04-25T19:21:19;15.80;77.30
53643;DHT22;39546;45.534;12.048;2023-04-25T19:27:22;15.70;77.30
53643;DHT22;39546;45.534;12.048;2023-04-25T19:33:24;15.70;77.40
53643;DHT22;39546;45.534;12.048;2023-04-25T19:39:26;15.60;77.50
53643;DHT22;39546;45.534;12.048;2023-04-25T19:45:29;15.60;77.70
53643;DHT22;39546;45.534;12.048;2023-04-25T19:51:32;15.70;77.80
53643;DHT22;39546;45.534;12.048;2023-04-25T19:57:35;15.60;77.70
53643;DHT22;39546;45.534;12.048;2023-04-25T20:03:38;15.40;78.00
53643;DHT22;39546;45.534;12.048;2023-04-25T20:09:41;15.30;78.10
53643;DHT22;39546;45.534;12.048;2023-04-25T20:15:43;15.30;78.30
53643;DHT22;39546;45.534;12.048;2023-04-25T20:21:45;15.20;78.40
53643;DHT22;39546;45.534;12.048;2023-04-25T20:27:48;15.10;78.40
53643;DHT22;39546;45.534;12.048;2023-04-25T20:33:50;15.20;78.50
53643;DHT22;39546;45.534;12.048;2023-04-25T20:39:52;15.20;78.60
53643;DHT22;39546;45.534;12.048;2023-04-25T20:45:55;15.10;78.60
53643;DHT22;39546;45.534;12.048;2023-04-25T20:51:58;15.00;78.80
53643;DHT22;39546;45.534;12.048;2023-04-25T20:58:00;14.90;79.00
53643;DHT22;39546;45.534;12.048;2023-04-25T21:04:02;14.80;79.00
53643;DHT22;39546;45.534;12.048;2023-04-25T21:10:04;14.80;79.10
53643;DHT22;39546;45.534;12.048;2023-04-25T21:16:06;14.90;79.20
53643;DHT22;39546;45.534;12.048;2023-04-25T21:22:09;14.90;79.00
53643;DHT22;39546;45.534;12.048;2023-04-25T21:28:11;14.80;79.10
53643;DHT22;39546;45.534;12.048;2023-04-25T21:34:13;14.60;79.30
53643;DHT22;39546;45.534;12.048;2023-04-25T21:40:15;14.50;79.50
53643;DHT22;39546;45.534;12.048;2023-04-25T21:46:18;14.50;79.40
53643;DHT22;39546;45.534;12.048;2023-04-25T21:52:23;14.40;79.50
53643;DHT22;39546;45.534;12.048;2023-04-25T21:58:25;14.50;79.90
53643;DHT22;39546;45.534;12.048;2023-04-25T22:04:28;14.60;80.30
53643;DHT22;39546;45.534;12.048;2023-04-25T22:10:30;14.50;80.10
53643;DHT22;39546;45.534;12.048;2023-04-25T22:16:32;14.20;80.20
53643;DHT22;39546;45.534;12.048;2023-04-25T22:22:34;14.20;80.40
53643;DHT22;39546;45.534;12.048;2023-04-25T22:28:37;14.10;80.30
53643;DHT22;39546;45.534;12.048;2023-04-25T22:34:40;14.10;80.50
53643;DHT22;39546;45.534;12.048;2023-04-25T22:40:43;14.10;80.60
53643;DHT22;39546;45.534;12.048;2023-04-25T22:46:48;14.00;80.60
53643;DHT22;39546;45.534;12.048;2023-04-25T22:52:51;14.10;81.00
53643;DHT22;39546;45.534;12.048;2023-04-25T22:58:54;14.10;80.80
53643;DHT22;39546;45.534;12.048;2023-04-25T23:04:56;13.90;80.80
53643;DHT22;39546;45.534;12.048;2023-04-25T23:10:58;13.80;81.10
53643;DHT22;39546;45.534;12.048;2023-04-25T23:17:00;13.70;81.20
53643;DHT22;39546;45.534;12.048;2023-04-25T23:23:02;13.80;81.40
53643;DHT22;39546;45.534;12.048;2023-04-25T23:29:04;13.90;81.20
53643;DHT22;39546;45.534;12.048;2023-04-25T23:35:06;13.70;81.10
53643;DHT22;39546;45.534;12.048;2023-04-25T23:41:10;13.70;81.30
53643;DHT22;39546;45.534;12.048;2023-04-25T23:47:12;13.70;81.10
53643;DHT22;39546;45.534;12.048;2023-04-25T23:53:14;13.70;80.90
53643;DHT22;39546;45.534;12.048;2023-04-25T23:59:16;13.60;81.00
